createdAt,value
2022-12-23T00:00:43.285Z,38.67
2022-12-23T00:03:10.237Z,39.38
2022-12-23T00:05:38.758Z,37.80
2022-12-23T00:08:08.311Z,36.83
2022-12-23T00:10:39.150Z,36.90
2022-12-23T00:13:24.509Z,36.17
2022-12-23T00:15:51.290Z,37.67
2022-12-23T00:18:18.327Z,36.28
2022-12-23T00:20:45.219Z,38.00
2022-12-23T00:23:11.994Z,41.35
2022-12-23T00:25:43.924Z,40.40
2022-12-23T00:28:21.411Z,40.13
2022-12-23T00:31:08.615Z,38.97
2022-12-23T00:33:41.239Z,39.28
2022-12-23T00:36:18.857Z,40.70
2022-12-23T00:39:04.757Z,38.78
2022-12-23T00:41:50.245Z,39.17
2022-12-23T00:44:17.390Z,38.33
2022-12-23T00:46:44.482Z,39.00
2022-12-23T00:49:34.912Z,41.47
2022-12-23T00:52:02.492Z,42.63
2022-12-23T00:54:29.960Z,41.60
2022-12-23T00:56:56.908Z,41.95
2022-12-23T00:59:23.688Z,38.67
2022-12-23T01:02:09.353Z,40.55
2022-12-23T01:04:54.901Z,40.75
2022-12-23T01:07:21.750Z,39.55
2022-12-23T01:09:48.537Z,38.67
2022-12-23T01:12:15.409Z,40.20
2022-12-23T01:14:42.219Z,40.40
2022-12-23T01:17:09.585Z,40.00
2022-12-23T01:19:36.856Z,38.90
2022-12-23T01:22:03.863Z,37.83
2022-12-23T01:24:31.953Z,37.38
2022-12-23T01:26:59.296Z,40.35
2022-12-23T01:29:26.599Z,38.85
2022-12-23T01:31:53.438Z,38.05
2022-12-23T01:34:20.336Z,39.53
2022-12-23T01:36:47.161Z,38.95
2022-12-23T01:39:13.946Z,38.47
2022-12-23T01:41:59.179Z,37.75
2022-12-23T01:44:49.128Z,39.28
2022-12-23T01:47:36.902Z,38.97
2022-12-23T01:50:10.003Z,39.92
2022-12-23T01:53:04.589Z,37.13
2022-12-23T01:55:40.188Z,38.28
2022-12-23T01:58:14.883Z,39.85
2022-12-23T02:01:01.250Z,38.22
2022-12-23T02:03:43.421Z,42.33
2022-12-23T02:06:38.632Z,42.00
2022-12-23T02:09:17.584Z,38.92
2022-12-23T02:12:12.271Z,38.90
2022-12-23T02:15:04.341Z,39.00
2022-12-23T02:17:57.391Z,38.95
2022-12-23T02:20:54.264Z,38.50
2022-12-23T02:23:51.770Z,39.17
2022-12-23T02:26:24.234Z,38.00
2022-12-23T02:29:12.570Z,38.53
2022-12-23T02:31:51.211Z,39.00
2022-12-23T02:35:00.634Z,38.88
2022-12-23T02:37:35.935Z,38.65
2022-12-23T02:40:05.784Z,38.60
2022-12-23T02:42:58.518Z,38.75
2022-12-23T02:45:32.865Z,37.50
2022-12-23T02:48:20.248Z,40.08
2022-12-23T02:50:47.838Z,39.58
2022-12-23T02:53:22.387Z,38.50
2022-12-23T02:55:51.772Z,37.78
2022-12-23T02:58:20.905Z,37.72
2022-12-23T03:00:50.014Z,35.75
2022-12-23T03:03:21.322Z,39.13
2022-12-23T03:05:50.102Z,37.78
2022-12-23T03:08:22.610Z,39.13
2022-12-23T03:11:10.919Z,38.90
2022-12-23T03:13:52.426Z,37.72
2022-12-23T03:16:42.833Z,40.60
2022-12-23T03:19:20.985Z,38.47
2022-12-23T03:22:08.436Z,37.00
2022-12-23T03:25:05.769Z,39.05
2022-12-23T03:28:03.071Z,39.47
2022-12-23T03:30:31.306Z,38.53
2022-12-23T03:33:10.415Z,38.80
2022-12-23T03:35:47.964Z,39.58
2022-12-23T03:38:18.186Z,39.72
2022-12-23T03:40:50.526Z,39.28
2022-12-23T03:45:54.696Z,37.78
2022-12-23T03:48:31.468Z,38.85
2022-12-23T03:51:04.328Z,39.15
2022-12-23T03:53:42.214Z,39.45
2022-12-23T03:56:14.148Z,38.20
2022-12-23T03:58:47.445Z,39.08
2022-12-23T04:01:14.377Z,41.05
2022-12-23T04:03:49.260Z,40.53
2022-12-23T04:06:19.578Z,41.20
2022-12-23T04:08:48.788Z,42.80
2022-12-23T04:11:15.623Z,40.42
2022-12-23T04:13:42.482Z,42.22
2022-12-23T04:16:09.910Z,40.35
2022-12-23T04:18:36.767Z,41.35
2022-12-23T04:21:03.777Z,42.40
2022-12-23T04:23:30.511Z,38.95
2022-12-23T04:25:57.287Z,41.03
2022-12-23T04:28:24.090Z,41.13
2022-12-23T04:30:50.902Z,41.17
2022-12-23T04:33:17.870Z,39.88
2022-12-23T04:35:44.713Z,42.03
2022-12-23T04:38:11.544Z,39.17
2022-12-23T04:40:38.779Z,41.67
2022-12-23T04:43:05.592Z,41.10
2022-12-23T04:45:33.157Z,41.63
2022-12-23T04:47:59.993Z,40.83
2022-12-23T04:50:26.828Z,43.28
2022-12-23T04:52:53.809Z,41.63
2022-12-23T04:55:20.841Z,39.25
2022-12-23T04:57:47.816Z,40.45
2022-12-23T05:00:15.199Z,38.90
2022-12-23T05:02:42.148Z,38.88
2022-12-23T05:05:09.546Z,38.17
2022-12-23T05:07:36.383Z,38.95
2022-12-23T05:10:03.346Z,39.05
2022-12-23T05:12:31.085Z,40.75
2022-12-23T05:14:58.064Z,39.60
2022-12-23T05:17:24.961Z,39.72
2022-12-23T05:19:51.805Z,39.72
2022-12-23T05:22:18.940Z,41.05
2022-12-23T05:24:45.839Z,39.78
2022-12-23T05:27:12.672Z,41.10
2022-12-23T05:29:39.558Z,40.10
2022-12-23T05:32:06.481Z,40.90
2022-12-23T05:34:33.344Z,40.53
2022-12-23T05:37:00.271Z,42.03
2022-12-23T05:39:27.173Z,41.35
2022-12-23T05:41:54.174Z,40.10
2022-12-23T05:44:21.297Z,40.75
2022-12-23T05:46:48.126Z,43.08
2022-12-23T05:49:15.146Z,41.72
2022-12-23T05:51:42.589Z,39.45
2022-12-23T05:54:09.523Z,42.10
2022-12-23T05:56:36.358Z,42.67
2022-12-23T05:59:03.845Z,42.33
2022-12-23T06:01:30.782Z,45.38
2022-12-23T06:03:57.807Z,45.08
2022-12-23T06:06:24.786Z,45.22
2022-12-23T06:08:57.521Z,45.75
2022-12-23T06:11:26.519Z,46.22
2022-12-23T06:13:53.329Z,46.72
2022-12-23T06:16:20.247Z,47.58
2022-12-23T06:18:47.228Z,49.25
2022-12-23T06:21:14.228Z,45.83
2022-12-23T06:23:41.172Z,43.83
2022-12-23T06:26:09.487Z,45.28
2022-12-23T06:28:36.638Z,44.33
2022-12-23T06:31:03.681Z,42.75
2022-12-23T06:33:30.901Z,43.83
2022-12-23T06:36:05.550Z,44.15
2022-12-23T06:38:40.721Z,43.45
2022-12-23T06:41:10.798Z,42.60
2022-12-23T06:43:37.803Z,45.33
2022-12-23T06:46:04.859Z,42.70
2022-12-23T06:48:37.736Z,43.72
2022-12-23T06:51:04.837Z,35.65
2022-12-23T06:53:35.463Z,31.13
2022-12-23T06:56:03.757Z,25.92
2022-12-23T06:58:31.043Z,23.27
2022-12-23T07:01:00.542Z,22.50
2022-12-23T07:03:28.745Z,21.50
2022-12-23T07:06:01.183Z,20.27
2022-12-23T07:08:28.919Z,20.13
2022-12-23T07:11:00.029Z,21.30
2022-12-23T07:13:27.918Z,20.15
2022-12-23T07:15:58.850Z,19.63
2022-12-23T07:18:29.525Z,20.63
2022-12-23T07:21:22.938Z,20.77
2022-12-23T07:23:57.653Z,21.90
2022-12-23T07:26:25.993Z,21.10
2022-12-23T07:28:53.190Z,20.20
2022-12-23T07:31:25.910Z,23.60
2022-12-23T07:33:55.316Z,19.58
2022-12-23T07:36:22.311Z,20.10
2022-12-23T07:38:52.707Z,20.05
2022-12-23T07:41:19.668Z,19.70
2022-12-23T07:43:47.113Z,20.10
2022-12-23T07:46:14.245Z,19.65
2022-12-23T07:48:44.381Z,22.63
2022-12-23T07:51:11.460Z,21.08
2022-12-23T07:53:38.638Z,21.73
2022-12-23T07:56:06.089Z,21.58
2022-12-23T07:58:34.554Z,20.65
2022-12-23T08:01:07.971Z,21.65
2022-12-23T08:03:35.413Z,23.33
2022-12-23T08:06:05.172Z,24.58
2022-12-23T08:08:32.923Z,24.42
2022-12-23T08:11:01.894Z,25.50
2022-12-23T08:13:28.987Z,27.30
2022-12-23T08:15:58.406Z,29.42
2022-12-23T08:18:26.488Z,35.97
2022-12-23T08:20:58.498Z,37.63
2022-12-23T08:23:26.677Z,32.70
2022-12-23T08:26:00.592Z,34.60
2022-12-23T08:28:28.274Z,31.90
2022-12-23T08:33:38.259Z,30.00
2022-12-23T08:36:07.348Z,29.38
2022-12-23T08:38:38.429Z,27.77
2022-12-23T08:41:10.546Z,27.00
2022-12-23T08:43:37.848Z,27.60
2022-12-23T08:46:05.561Z,24.60
2022-12-23T08:48:36.154Z,23.83
2022-12-23T08:51:12.539Z,21.60
2022-12-23T08:53:42.658Z,21.75
2022-12-23T08:56:16.813Z,19.60
2022-12-23T08:58:48.236Z,18.75
2022-12-23T09:01:18.326Z,13.63
2022-12-23T09:03:46.226Z,18.55
2022-12-23T09:06:24.685Z,20.20
2022-12-23T09:08:55.742Z,20.17
2022-12-23T09:11:29.088Z,21.02
2022-12-23T09:13:58.006Z,20.75
2022-12-23T09:16:26.829Z,20.48
2022-12-23T09:18:54.063Z,22.65
2022-12-23T09:21:23.167Z,21.85
2022-12-23T09:23:52.890Z,26.00
2022-12-23T09:26:29.142Z,25.50
2022-12-23T09:29:07.489Z,26.70
2022-12-23T09:31:43.379Z,28.42
2022-12-23T09:34:13.232Z,27.50
2022-12-23T09:36:40.093Z,30.33
2022-12-23T09:39:06.914Z,30.05
2022-12-23T09:42:03.457Z,30.75
2022-12-23T09:45:05.710Z,30.83
2022-12-23T09:47:34.196Z,32.65
2022-12-23T09:50:04.884Z,30.67
2022-12-23T09:52:57.838Z,32.05
2022-12-23T09:55:44.051Z,30.02
2022-12-23T09:58:25.506Z,30.17
2022-12-23T10:01:18.988Z,30.33
2022-12-23T10:04:11.542Z,29.60
2022-12-23T10:09:10.175Z,28.08
2022-12-23T10:11:42.791Z,28.42
2022-12-23T10:17:10.207Z,28.10
2022-12-23T10:19:42.169Z,30.83
2022-12-23T10:22:23.043Z,34.67
2022-12-23T10:24:50.489Z,28.80
2022-12-23T10:27:35.840Z,30.98
2022-12-23T10:30:42.506Z,28.98
2022-12-23T10:33:18.109Z,29.50
2022-12-23T10:36:06.214Z,32.47
2022-12-23T10:41:34.162Z,30.48
2022-12-23T10:44:39.344Z,29.63
2022-12-23T10:47:24.073Z,30.75
2022-12-23T10:53:59.742Z,29.70
2022-12-23T10:56:28.785Z,28.85
2022-12-23T10:59:00.897Z,30.67
2022-12-23T11:01:31.410Z,29.00
2022-12-23T11:04:36.576Z,29.48
2022-12-23T11:07:42.036Z,29.58
2022-12-23T11:10:08.128Z,29.27
2022-12-23T11:12:44.475Z,28.80
2022-12-23T11:15:30.965Z,30.05
2022-12-23T11:18:19.528Z,27.88
2022-12-23T11:21:03.663Z,27.95
2022-12-23T11:23:36.537Z,30.25
2022-12-23T11:26:10.023Z,28.63
2022-12-23T11:28:40.512Z,27.33
2022-12-23T11:31:12.027Z,27.58
2022-12-23T11:33:49.109Z,27.45
2022-12-23T11:36:24.534Z,27.48
2022-12-23T11:38:53.001Z,26.40
2022-12-23T11:41:22.855Z,27.02
2022-12-23T11:44:01.620Z,26.98
2022-12-23T11:46:32.055Z,26.13
2022-12-23T11:49:34.251Z,27.23
2022-12-23T11:52:07.338Z,25.70
2022-12-23T11:54:34.649Z,25.70
2022-12-23T11:57:05.839Z,25.90
2022-12-23T11:59:38.111Z,24.40
2022-12-23T12:05:00.826Z,25.90
2022-12-23T12:07:28.876Z,26.48
2022-12-23T12:09:58.940Z,26.35
2022-12-23T12:12:27.498Z,24.80
2022-12-23T12:14:57.349Z,24.98
2022-12-23T12:17:36.655Z,26.05
2022-12-23T12:20:13.920Z,25.75
2022-12-23T12:22:52.742Z,26.27
2022-12-23T12:25:42.853Z,26.80
2022-12-23T12:28:14.818Z,27.80
2022-12-23T12:31:02.841Z,26.25
2022-12-23T12:33:51.232Z,24.95
2022-12-23T12:36:39.470Z,25.10
2022-12-23T12:39:23.022Z,26.13
2022-12-23T12:42:11.008Z,26.33
2022-12-23T12:44:58.541Z,25.95
2022-12-23T12:47:53.181Z,25.23
2022-12-23T12:50:39.224Z,24.67
2022-12-23T12:53:19.113Z,26.20
2022-12-23T12:55:52.951Z,25.48
2022-12-23T12:58:23.852Z,27.13
2022-12-23T13:01:15.614Z,24.33
2022-12-23T13:03:58.279Z,24.70
2022-12-23T13:06:25.256Z,23.38
2022-12-23T13:12:29.005Z,24.38
2022-12-23T13:15:19.133Z,26.33
2022-12-23T13:18:14.611Z,26.08
2022-12-23T13:20:57.626Z,26.52
2022-12-23T13:23:45.473Z,25.83
2022-12-23T13:26:38.317Z,24.67
2022-12-23T13:29:35.693Z,24.95
2022-12-23T13:32:13.388Z,25.13
2022-12-23T13:37:58.018Z,28.00
2022-12-23T13:40:36.704Z,27.10
2022-12-23T13:43:19.244Z,24.77
2022-12-23T13:48:38.739Z,26.10
2022-12-23T13:51:19.519Z,24.48
2022-12-23T13:54:31.804Z,24.92
2022-12-23T13:57:08.965Z,24.85
2022-12-23T13:59:39.768Z,26.02
2022-12-23T14:02:42.081Z,24.77
2022-12-23T14:05:31.136Z,24.63
2022-12-23T14:08:22.877Z,25.55
2022-12-23T14:11:21.151Z,28.15
2022-12-23T14:13:56.489Z,27.98
2022-12-23T14:16:41.764Z,28.73
2022-12-23T14:19:34.178Z,27.30
2022-12-23T14:22:16.340Z,27.33
2022-12-23T14:24:51.992Z,27.55
2022-12-23T14:27:40.714Z,27.40
2022-12-23T14:30:17.373Z,39.35
2022-12-23T14:32:52.515Z,30.38
2022-12-23T14:35:25.648Z,29.83
2022-12-23T14:38:05.008Z,29.70
2022-12-23T14:40:37.968Z,29.38
2022-12-23T14:43:43.574Z,29.02
2022-12-23T14:46:36.151Z,30.38
2022-12-23T14:49:36.860Z,29.95
2022-12-23T14:51:56.263Z,29.92
2022-12-23T14:54:39.951Z,28.60
2022-12-23T14:57:21.263Z,30.20
2022-12-23T15:02:43.264Z,30.08
2022-12-23T15:05:10.862Z,28.25
2022-12-23T15:07:42.729Z,28.98
2022-12-23T15:10:20.178Z,27.95
2022-12-23T15:15:38.741Z,32.33
2022-12-23T15:18:17.144Z,30.88
2022-12-23T15:20:44.742Z,31.98
2022-12-23T15:23:16.551Z,28.42
2022-12-23T15:25:52.315Z,31.50
2022-12-23T15:28:23.219Z,38.13
2022-12-23T15:30:56.697Z,36.85
2022-12-23T15:38:51.043Z,37.03
2022-12-23T15:41:22.616Z,38.40
2022-12-23T15:43:56.437Z,37.45
2022-12-23T15:46:44.165Z,36.03
2022-12-23T15:49:13.202Z,34.83
2022-12-23T15:54:45.163Z,34.22
2022-12-23T15:57:20.811Z,33.92
2022-12-23T15:59:49.486Z,34.20
2022-12-23T16:08:30.713Z,41.20
2022-12-23T16:11:17.541Z,39.38
2022-12-23T16:13:58.762Z,34.45
2022-12-23T16:16:41.510Z,35.83
2022-12-23T16:19:38.631Z,35.50
2022-12-23T16:22:35.188Z,34.72
2022-12-23T16:25:22.349Z,33.95
2022-12-23T16:27:57.836Z,33.15
2022-12-23T16:30:39.271Z,32.45
2022-12-23T16:33:23.901Z,34.45
2022-12-23T16:35:53.062Z,34.50
2022-12-23T16:38:28.115Z,34.08
2022-12-23T16:40:57.992Z,34.50
2022-12-23T16:43:39.034Z,37.75
2022-12-23T16:46:06.659Z,37.60
2022-12-23T16:48:33.600Z,38.08
2022-12-23T16:51:03.340Z,37.38
2022-12-23T16:53:34.465Z,36.53
2022-12-23T16:56:03.240Z,36.22
2022-12-23T17:04:01.388Z,38.13
2022-12-23T17:06:28.609Z,36.80
2022-12-23T17:08:57.065Z,36.97
2022-12-23T17:11:33.462Z,37.42
2022-12-23T17:16:48.668Z,37.30
2022-12-23T17:19:20.506Z,37.40
2022-12-23T17:22:02.180Z,33.80
2022-12-23T17:24:29.326Z,34.42
2022-12-23T17:26:56.985Z,33.75
2022-12-23T17:29:25.791Z,36.67
2022-12-23T17:31:52.969Z,36.83
2022-12-23T17:34:24.854Z,37.85
2022-12-23T17:36:53.447Z,36.90
2022-12-23T17:39:21.418Z,36.30
2022-12-23T17:41:48.928Z,37.17
2022-12-23T17:44:18.810Z,39.65
2022-12-23T17:46:47.204Z,47.72
2022-12-23T17:49:14.043Z,38.50
2022-12-23T17:51:42.973Z,38.60
2022-12-23T17:57:19.477Z,37.90
2022-12-23T17:59:54.971Z,42.03
2022-12-23T18:02:39.606Z,36.20
2022-12-23T18:05:32.603Z,42.70
2022-12-23T18:08:02.828Z,42.42
2022-12-23T18:10:50.486Z,41.63
2022-12-23T18:13:20.358Z,46.53
2022-12-23T18:15:48.395Z,38.53
2022-12-23T18:18:27.581Z,43.92
2022-12-23T18:21:01.388Z,41.75
2022-12-23T18:23:32.677Z,26.80
2022-12-23T18:26:07.985Z,34.25
2022-12-23T18:28:35.481Z,35.50
2022-12-23T18:31:02.811Z,33.65
2022-12-23T18:33:30.379Z,34.58
2022-12-23T18:35:58.447Z,33.67
2022-12-23T18:38:25.610Z,36.80
2022-12-23T18:40:54.707Z,36.20
2022-12-23T18:43:28.646Z,29.65
2022-12-23T18:45:56.508Z,33.13
2022-12-23T18:48:24.632Z,34.88
2022-12-23T18:51:01.908Z,34.97
2022-12-23T18:53:28.946Z,32.60
2022-12-23T18:55:55.923Z,37.65
2022-12-23T18:58:24.405Z,39.28
2022-12-23T19:00:56.079Z,44.10
2022-12-23T19:03:27.561Z,77.30
2022-12-23T19:05:56.829Z,39.53
2022-12-23T19:08:27.512Z,50.47
2022-12-23T19:10:55.835Z,38.83
2022-12-23T19:13:24.826Z,35.97
2022-12-23T19:15:51.990Z,37.10
2022-12-23T19:18:22.547Z,36.70
2022-12-23T19:20:49.741Z,37.22
2022-12-23T19:23:17.512Z,38.85
2022-12-23T19:25:52.578Z,37.88
2022-12-23T19:28:22.596Z,39.47
2022-12-23T19:30:49.904Z,45.13
2022-12-23T19:33:17.261Z,46.92
2022-12-23T19:35:45.315Z,40.97
2022-12-23T19:38:12.556Z,32.72
2022-12-23T19:40:40.463Z,36.38
2022-12-23T19:43:07.705Z,34.20
2022-12-23T19:45:35.488Z,38.20
2022-12-23T19:48:02.501Z,37.85
2022-12-23T19:50:29.873Z,33.20
2022-12-23T19:55:58.744Z,33.05
2022-12-23T20:01:25.069Z,36.60
2022-12-23T20:03:54.036Z,37.50
2022-12-23T20:06:27.488Z,33.72
2022-12-23T20:09:00.332Z,35.55
2022-12-23T20:11:31.011Z,32.92
2022-12-23T20:13:58.553Z,32.78
2022-12-23T20:16:28.262Z,35.08
2022-12-23T20:18:55.960Z,33.25
2022-12-23T20:21:23.497Z,34.90
2022-12-23T20:26:59.897Z,36.00
2022-12-23T20:29:28.640Z,31.95
2022-12-23T20:31:58.931Z,30.95
2022-12-23T20:34:26.995Z,34.92
2022-12-23T20:36:54.234Z,35.28
2022-12-23T20:39:22.279Z,43.28
2022-12-23T20:41:49.467Z,40.80
2022-12-23T20:49:51.564Z,34.72
2022-12-23T20:57:57.315Z,33.38
2022-12-23T21:00:32.526Z,34.20
2022-12-23T21:03:03.808Z,36.38
2022-12-23T21:05:34.246Z,33.55
2022-12-23T21:08:10.699Z,31.48
2022-12-23T21:16:10.657Z,54.75
2022-12-23T21:18:45.923Z,42.53
2022-12-23T21:21:20.954Z,37.88
2022-12-23T21:23:48.547Z,35.67
2022-12-23T21:26:19.892Z,33.92
2022-12-23T21:28:49.096Z,33.70
2022-12-23T21:31:21.691Z,30.98
2022-12-23T21:33:50.547Z,35.35
2022-12-23T21:36:20.573Z,34.83
2022-12-23T21:38:53.426Z,36.38
2022-12-23T21:41:23.481Z,35.47
2022-12-23T21:43:51.099Z,36.75
2022-12-23T21:46:22.719Z,36.50
2022-12-23T21:48:55.510Z,35.10
2022-12-23T21:51:25.747Z,37.93
2022-12-23T21:53:55.550Z,40.10
2022-12-23T21:56:30.207Z,38.53
2022-12-23T21:59:12.470Z,38.05
2022-12-23T22:07:25.983Z,37.72
2022-12-23T22:09:53.614Z,36.25
2022-12-23T22:12:20.482Z,34.35
2022-12-23T22:14:48.101Z,35.65
2022-12-23T22:17:14.944Z,36.25
2022-12-23T22:19:41.958Z,35.97
2022-12-23T22:22:08.891Z,39.42
2022-12-23T22:24:35.723Z,39.00
2022-12-23T22:27:02.778Z,36.80
2022-12-23T22:29:29.717Z,34.22
2022-12-23T22:31:56.932Z,36.22
2022-12-23T22:37:07.786Z,33.95
2022-12-23T22:39:34.908Z,33.90
2022-12-23T22:42:03.050Z,35.97
2022-12-23T22:44:32.372Z,39.03
2022-12-23T22:46:59.308Z,37.70
2022-12-23T22:49:26.460Z,36.05
2022-12-23T22:51:53.700Z,37.00
2022-12-23T22:54:20.577Z,37.20
2022-12-23T22:56:47.525Z,31.75
2022-12-23T22:59:25.730Z,34.72
2022-12-23T23:01:54.322Z,34.60
2022-12-23T23:04:21.878Z,34.72
2022-12-23T23:06:52.165Z,34.35
2022-12-23T23:09:20.575Z,34.90
2022-12-23T23:11:47.667Z,36.45
2022-12-23T23:14:15.031Z,38.83
2022-12-23T23:16:42.914Z,63.70
2022-12-23T23:24:24.104Z,75.88
2022-12-23T23:26:55.039Z,59.33
2022-12-23T23:29:22.796Z,47.97
2022-12-23T23:31:49.639Z,44.70
2022-12-23T23:34:16.748Z,45.47
2022-12-23T23:36:43.594Z,69.32
2022-12-23T23:39:12.603Z,67.10
2022-12-23T23:41:40.929Z,52.85
2022-12-23T23:44:08.986Z,46.80
2022-12-23T23:46:36.201Z,44.75
2022-12-23T23:49:03.365Z,46.75
2022-12-23T23:51:30.357Z,44.83
2022-12-23T23:53:57.196Z,44.90
2022-12-23T23:56:26.246Z,45.30
2022-12-23T23:58:54.684Z,42.50
